Custer, Michigan
Current Conditions -  °F | °C
As of 11:55 AM on Friday 31 Oct 2014 (Local Time) from KLDM Reporting Station
Light Snow Light Snow  
Wind Chill: 24°   Ceiling: 1400
Heat Index: 34°   Visibility: 7mi
Dew Point: 32°   Wind: 15mph
Humidity: 92%   Direction: 10°N
Pressure: 30.12"   Gusts: 29mph
Location:  43.95°N, 86.22°W
Report Text: KLDM 311555Z AUTO 01013G25KT 7SM -SN BKN014 BKN020 OVC025 01/00 A3012 RMK AO2 T00120000
Loading
Personal Weather Stations






























Interactive Weather Map
Tropical Storm Tracking
New forecast layout! Learn more

10-Day Weather Forecast

Advertisements
Track Severe Weather on mobile